sensor_id;sensor_type;location;lat;lon;timestamp;pressure;altitude;pressure_sealevel;temperature;humidity
55656;BME280;41530;52.382;5.270;2023-08-06T00:00:53;100688.47;;;19.72;58.69
55656;BME280;41530;52.382;5.270;2023-08-06T00:03:20;100699.16;;;19.72;58.59
55656;BME280;41530;52.382;5.270;2023-08-06T00:05:46;100696.50;;;19.72;58.34
55656;BME280;41530;52.382;5.270;2023-08-06T00:08:13;100697.31;;;19.72;58.86
55656;BME280;41530;52.382;5.270;2023-08-06T00:10:40;100692.34;;;19.69;58.15
55656;BME280;41530;52.382;5.270;2023-08-06T00:13:08;100696.84;;;19.69;58.98
55656;BME280;41530;52.382;5.270;2023-08-06T00:15:34;100696.84;;;19.69;58.53
55656;BME280;41530;52.382;5.270;2023-08-06T00:18:01;100696.84;;;19.69;58.87
55656;BME280;41530;52.382;5.270;2023-08-06T00:20:28;100694.34;;;19.67;59.03
55656;BME280;41530;52.382;5.270;2023-08-06T00:22:54;100695.34;;;19.66;58.20
55656;BME280;41530;52.382;5.270;2023-08-06T00:25:21;100691.34;;;19.62;59.27
55656;BME280;41530;52.382;5.270;2023-08-06T00:27:47;100688.69;;;19.62;58.82
55656;BME280;41530;52.382;5.270;2023-08-06T00:30:14;100691.34;;;19.62;59.26
55656;BME280;41530;52.382;5.270;2023-08-06T00:32:41;100691.34;;;19.62;58.66
55656;BME280;41530;52.382;5.270;2023-08-06T00:35:07;100684.00;;;19.64;58.61
55656;BME280;41530;52.382;5.270;2023-08-06T00:37:34;100688.50;;;19.64;59.22
55656;BME280;41530;52.382;5.270;2023-08-06T00:40:01;100690.19;;;19.65;58.80
55656;BME280;41530;52.382;5.270;2023-08-06T00:42:28;100694.84;;;19.63;58.46
55656;BME280;41530;52.382;5.270;2023-08-06T00:44:54;100692.34;;;19.61;58.91
55656;BME280;41530;52.382;5.270;2023-08-06T00:47:21;100689.00;;;19.59;58.91
55656;BME280;41530;52.382;5.270;2023-08-06T00:49:48;100684.66;;;19.58;59.30
55656;BME280;41530;52.382;5.270;2023-08-06T00:52:14;100690.69;;;19.60;58.52
55656;BME280;41530;52.382;5.270;2023-08-06T00:54:41;100693.34;;;19.60;58.89
55656;BME280;41530;52.382;5.270;2023-08-06T00:57:09;100683.66;;;19.59;58.68
55656;BME280;41530;52.382;5.270;2023-08-06T00:59:36;100689.69;;;19.61;59.07
55656;BME280;41530;52.382;5.270;2023-08-06T01:02:04;100683.34;;;19.62;58.63
55656;BME280;41530;52.382;5.270;2023-08-06T01:04:30;100686.00;;;19.62;58.88
55656;BME280;41530;52.382;5.270;2023-08-06T01:12:34;100690.69;;;19.68;58.58
55656;BME280;41530;52.382;5.270;2023-08-06T01:15:20;100683.50;;;19.69;59.51
55656;BME280;41530;52.382;5.270;2023-08-06T01:17:48;100684.50;;;19.68;59.09
55656;BME280;41530;52.382;5.270;2023-08-06T01:20:15;100682.66;;;19.68;58.36
55656;BME280;41530;52.382;5.270;2023-08-06T01:22:41;100680.34;;;19.65;59.19
55656;BME280;41530;52.382;5.270;2023-08-06T01:25:08;100684.66;;;19.66;59.48
55656;BME280;41530;52.382;5.270;2023-08-06T01:27:46;100684.34;;;19.69;59.09
55656;BME280;41530;52.382;5.270;2023-08-06T01:30:21;100682.97;;;19.73;59.46
55656;BME280;41530;52.382;5.270;2023-08-06T01:32:53;100682.97;;;19.73;58.72
55656;BME280;41530;52.382;5.270;2023-08-06T01:35:25;100681.66;;;19.77;58.93
55656;BME280;41530;52.382;5.270;2023-08-06T01:37:53;100671.97;;;19.76;59.03
55656;BME280;41530;52.382;5.270;2023-08-06T01:40:21;100686.66;;;19.80;59.12
55656;BME280;41530;52.382;5.270;2023-08-06T01:42:47;100683.97;;;19.80;58.51
55656;BME280;41530;52.382;5.270;2023-08-06T01:45:14;100681.16;;;19.82;58.97
55656;BME280;41530;52.382;5.270;2023-08-06T01:47:41;100686.13;;;19.85;58.91
55656;BME280;41530;52.382;5.270;2023-08-06T01:50:07;100684.94;;;19.87;59.03
55656;BME280;41530;52.382;5.270;2023-08-06T01:52:34;100677.09;;;19.86;58.92
55656;BME280;41530;52.382;5.270;2023-08-06T01:55:01;100674.28;;;19.87;58.53
55656;BME280;41530;52.382;5.270;2023-08-06T01:57:28;100680.09;;;19.91;58.81
55656;BME280;41530;52.382;5.270;2023-08-06T01:59:54;100681.94;;;19.90;58.49
55656;BME280;41530;52.382;5.270;2023-08-06T02:02:21;100684.28;;;19.93;59.01
55656;BME280;41530;52.382;5.270;2023-08-06T02:04:48;100676.44;;;19.92;58.55
55656;BME280;41530;52.382;5.270;2023-08-06T02:07:14;100690.28;;;19.96;58.60
55656;BME280;41530;52.382;5.270;2023-08-06T02:09:41;100689.28;;;19.97;58.82
55656;BME280;41530;52.382;5.270;2023-08-06T02:12:08;100689.28;;;19.97;58.70
55656;BME280;41530;52.382;5.270;2023-08-06T02:14:35;100692.97;;;19.96;58.44
55656;BME280;41530;52.382;5.270;2023-08-06T02:17:01;100692.97;;;19.96;58.43
55656;BME280;41530;52.382;5.270;2023-08-06T02:19:28;100695.47;;;19.97;58.55
55656;BME280;41530;52.382;5.270;2023-08-06T02:21:55;100685.94;;;19.95;58.67
55656;BME280;41530;52.382;5.270;2023-08-06T02:24:21;100689.28;;;19.97;58.47
55656;BME280;41530;52.382;5.270;2023-08-06T02:26:48;100689.28;;;19.97;58.65
55656;BME280;41530;52.382;5.270;2023-08-06T02:29:17;100679.44;;;19.97;58.24
55656;BME280;41530;52.382;5.270;2023-08-06T02:31:44;100678.78;;;19.95;58.33
55656;BME280;41530;52.382;5.270;2023-08-06T02:34:11;100687.25;;;19.99;58.41
55656;BME280;41530;52.382;5.270;2023-08-06T02:36:37;100688.25;;;19.98;58.13
55656;BME280;41530;52.382;5.270;2023-08-06T02:39:04;100686.63;;;19.97;58.13
55656;BME280;41530;52.382;5.270;2023-08-06T02:41:31;100677.78;;;19.96;58.38
55656;BME280;41530;52.382;5.270;2023-08-06T02:43:57;100679.44;;;19.97;58.39
55656;BME280;41530;52.382;5.270;2023-08-06T02:46:24;100683.94;;;19.97;58.41
55656;BME280;41530;52.382;5.270;2023-08-06T02:48:50;100685.41;;;19.99;58.32
55656;BME280;41530;52.382;5.270;2023-08-06T02:51:17;100686.91;;;20.02;58.28
55656;BME280;41530;52.382;5.270;2023-08-06T02:53:44;100679.72;;;20.02;58.19
55656;BME280;41530;52.382;5.270;2023-08-06T02:56:11;100685.91;;;20.03;58.27
55656;BME280;41530;52.382;5.270;2023-08-06T02:58:37;100676.91;;;20.04;58.06
55656;BME280;41530;52.382;5.270;2023-08-06T03:01:05;100672.38;;;20.04;58.14
55656;BME280;41530;52.382;5.270;2023-08-06T03:03:34;100673.88;;;20.07;57.89
55656;BME280;41530;52.382;5.270;2023-08-06T03:06:00;100677.38;;;20.07;58.08
55656;BME280;41530;52.382;5.270;2023-08-06T03:08:28;100670.22;;;20.08;58.20
55656;BME280;41530;52.382;5.270;2023-08-06T03:10:55;100670.88;;;20.10;57.75
55656;BME280;41530;52.382;5.270;2023-08-06T03:13:21;100671.06;;;20.08;58.06
55656;BME280;41530;52.382;5.270;2023-08-06T03:15:55;100664.50;;;20.11;58.18
55656;BME280;41530;52.382;5.270;2023-08-06T03:18:22;100668.00;;;20.11;57.82
55656;BME280;41530;52.382;5.270;2023-08-06T03:20:49;100669.84;;;20.11;57.97
55656;BME280;41530;52.382;5.270;2023-08-06T03:23:16;100667.84;;;20.13;57.84
55656;BME280;41530;52.382;5.270;2023-08-06T03:25:43;100670.69;;;20.11;58.35
55656;BME280;41530;52.382;5.270;2023-08-06T03:28:10;100666.16;;;20.12;58.20
55656;BME280;41530;52.382;5.270;2023-08-06T03:30:37;100669.84;;;20.11;58.26
55656;BME280;41530;52.382;5.270;2023-08-06T03:33:04;100673.00;;;20.14;57.56
55656;BME280;41530;52.382;5.270;2023-08-06T03:35:30;100674.19;;;20.12;57.80
55656;BME280;41530;52.382;5.270;2023-08-06T03:37:57;100675.03;;;20.12;57.76
55656;BME280;41530;52.382;5.270;2023-08-06T03:40:24;100669.84;;;20.11;57.84
55656;BME280;41530;52.382;5.270;2023-08-06T03:42:50;100667.00;;;20.12;58.14
55656;BME280;41530;52.382;5.270;2023-08-06T03:45:17;100665.16;;;20.13;57.67
55656;BME280;41530;52.382;5.270;2023-08-06T03:47:44;100672.34;;;20.12;58.02
55656;BME280;41530;52.382;5.270;2023-08-06T03:50:10;100671.34;;;20.13;57.88
55656;BME280;41530;52.382;5.270;2023-08-06T03:52:37;100664.84;;;20.16;57.75
55656;BME280;41530;52.382;5.270;2023-08-06T03:55:04;100663.16;;;20.15;57.64
55656;BME280;41530;52.382;5.270;2023-08-06T03:57:30;100658.16;;;20.12;57.73
55656;BME280;41530;52.382;5.270;2023-08-06T03:59:57;100671.19;;;20.15;57.47
55656;BME280;41530;52.382;5.270;2023-08-06T04:02:24;100673.69;;;20.16;57.56
55656;BME280;41530;52.382;5.270;2023-08-06T04:04:50;100666.66;;;20.15;57.77
55656;BME280;41530;52.382;5.270;2023-08-06T04:07:19;100671.19;;;20.15;57.45
55656;BME280;41530;52.382;5.270;2023-08-06T04:10:00;100673.84;;;20.15;57.74
55656;BME280;41530;52.382;5.270;2023-08-06T04:12:27;100670.34;;;20.14;57.73
55656;BME280;41530;52.382;5.270;2023-08-06T04:14:55;100677.34;;;20.15;57.71
55656;BME280;41530;52.382;5.270;2023-08-06T04:17:22;100676.34;;;20.16;57.73
55656;BME280;41530;52.382;5.270;2023-08-06T04:19:51;100679.84;;;20.17;57.95
55656;BME280;41530;52.382;5.270;2023-08-06T04:22:19;100682.34;;;20.18;57.88
55656;BME280;41530;52.382;5.270;2023-08-06T04:24:46;100683.19;;;20.19;57.59
55656;BME280;41530;52.382;5.270;2023-08-06T04:27:14;100684.84;;;20.20;57.65
55656;BME280;41530;52.382;5.270;2023-08-06T04:29:41;100689.38;;;20.19;57.65
55656;BME280;41530;52.382;5.270;2023-08-06T04:32:09;100686.19;;;20.16;57.81
55656;BME280;41530;52.382;5.270;2023-08-06T04:34:36;100689.69;;;20.16;57.90
55656;BME280;41530;52.382;5.270;2023-08-06T04:37:04;100688.03;;;20.15;57.63
55656;BME280;41530;52.382;5.270;2023-08-06T04:39:31;100693.38;;;20.15;58.11
55656;BME280;41530;52.382;5.270;2023-08-06T04:41:58;100690.03;;;20.13;57.55
55656;BME280;41530;52.382;5.270;2023-08-06T04:44:25;100697.06;;;20.14;57.82
55656;BME280;41530;52.382;5.270;2023-08-06T04:46:52;100695.22;;;20.15;57.65
55656;BME280;41530;52.382;5.270;2023-08-06T04:49:21;100698.06;;;20.13;57.59
55656;BME280;41530;52.382;5.270;2023-08-06T04:51:48;100699.06;;;20.12;57.72
55656;BME280;41530;52.382;5.270;2023-08-06T04:54:15;100705.91;;;20.15;57.80
55656;BME280;41530;52.382;5.270;2023-08-06T04:56:41;100698.88;;;20.14;58.06
55656;BME280;41530;52.382;5.270;2023-08-06T04:59:08;100704.91;;;20.16;57.78
55656;BME280;41530;52.382;5.270;2023-08-06T05:01:35;100698.56;;;20.17;57.84
55656;BME280;41530;52.382;5.270;2023-08-06T05:04:01;100701.06;;;20.18;57.91
55656;BME280;41530;52.382;5.270;2023-08-06T05:06:28;100695.22;;;20.15;57.57
55656;BME280;41530;52.382;5.270;2023-08-06T05:08:54;100694.38;;;20.14;57.90
55656;BME280;41530;52.382;5.270;2023-08-06T05:11:21;100699.22;;;20.19;57.61
55656;BME280;41530;52.382;5.270;2023-08-06T05:13:48;100698.72;;;20.15;57.73
55656;BME280;41530;52.382;5.270;2023-08-06T05:16:14;100703.22;;;20.15;57.82
55656;BME280;41530;52.382;5.270;2023-08-06T05:18:41;100716.25;;;20.18;57.49
55656;BME280;41530;52.382;5.270;2023-08-06T05:21:08;100718.75;;;20.19;57.22
55656;BME280;41530;52.382;5.270;2023-08-06T05:23:34;100718.09;;;20.17;57.46
55656;BME280;41530;52.382;5.270;2023-08-06T05:26:01;100722.09;;;20.21;57.78
55656;BME280;41530;52.382;5.270;2023-08-06T05:28:28;100722.91;;;20.22;57.76
55656;BME280;41530;52.382;5.270;2023-08-06T05:30:54;100728.25;;;20.22;57.86
55656;BME280;41530;52.382;5.270;2023-08-06T05:33:21;100724.75;;;20.21;57.72
55656;BME280;41530;52.382;5.270;2023-08-06T05:35:49;100729.25;;;20.21;57.87
55656;BME280;41530;52.382;5.270;2023-08-06T05:38:16;100728.25;;;20.22;57.65
55656;BME280;41530;52.382;5.270;2023-08-06T05:40:44;100731.56;;;20.24;57.77
55656;BME280;41530;52.382;5.270;2023-08-06T05:43:10;100733.06;;;20.26;57.52
55656;BME280;41530;52.382;5.270;2023-08-06T05:45:37;100734.91;;;20.26;57.97
55656;BME280;41530;52.382;5.270;2023-08-06T05:48:04;100734.06;;;20.25;57.88
55656;BME280;41530;52.382;5.270;2023-08-06T05:50:31;100736.09;;;20.23;57.51
55656;BME280;41530;52.382;5.270;2023-08-06T05:52:57;100739.41;;;20.25;57.88
55656;BME280;41530;52.382;5.270;2023-08-06T05:55:27;100743.28;;;20.23;57.66
55656;BME280;41530;52.382;5.270;2023-08-06T05:57:54;100746.78;;;20.23;57.54
55656;BME280;41530;52.382;5.270;2023-08-06T06:00:21;100750.25;;;20.24;57.70
55656;BME280;41530;52.382;5.270;2023-08-06T06:02:48;100751.94;;;20.25;57.90
55656;BME280;41530;52.382;5.270;2023-08-06T06:05:15;100759.78;;;20.26;57.81
55656;BME280;41530;52.382;5.270;2023-08-06T06:07:41;100758.09;;;20.25;57.83
55656;BME280;41530;52.382;5.270;2023-08-06T06:10:09;100764.44;;;20.24;57.55
55656;BME280;41530;52.382;5.270;2023-08-06T06:12:35;100760.78;;;20.25;57.61
55656;BME280;41530;52.382;5.270;2023-08-06T06:15:04;100773.13;;;20.26;57.71
55656;BME280;41530;52.382;5.270;2023-08-06T06:17:31;100764.94;;;20.28;57.20
55656;BME280;41530;52.382;5.270;2023-08-06T06:19:58;100766.78;;;20.27;57.64
55656;BME280;41530;52.382;5.270;2023-08-06T06:22:24;100766.63;;;20.29;57.47
55656;BME280;41530;52.382;5.270;2023-08-06T06:24:51;100767.28;;;20.31;57.52
55656;BME280;41530;52.382;5.270;2023-08-06T06:27:18;100768.78;;;20.34;57.63
55656;BME280;41530;52.382;5.270;2023-08-06T06:29:45;100771.63;;;20.32;57.44
55656;BME280;41530;52.382;5.270;2023-08-06T06:32:11;100779.47;;;20.34;57.46
55656;BME280;41530;52.382;5.270;2023-08-06T06:34:38;100779.81;;;20.31;57.48
55656;BME280;41530;52.382;5.270;2023-08-06T06:37:05;100781.66;;;20.30;57.33
55656;BME280;41530;52.382;5.270;2023-08-06T06:39:31;100778.00;;;20.23;57.66
55656;BME280;41530;52.382;5.270;2023-08-06T06:41:58;100778.66;;;20.25;57.60
55656;BME280;41530;52.382;5.270;2023-08-06T06:44:24;100782.31;;;20.24;58.09
55656;BME280;41530;52.382;5.270;2023-08-06T06:46:51;100793.19;;;20.22;58.12
55656;BME280;41530;52.382;5.270;2023-08-06T06:49:18;100786.19;;;20.21;58.00
55656;BME280;41530;52.382;5.270;2023-08-06T06:51:44;100794.88;;;20.23;58.05
55656;BME280;41530;52.382;5.270;2023-08-06T06:54:11;100789.16;;;20.26;57.82
55656;BME280;41530;52.382;5.270;2023-08-06T06:56:38;100790.66;;;20.29;57.85
55656;BME280;41530;52.382;5.270;2023-08-06T06:59:04;100788.81;;;20.38;57.58
55656;BME280;41530;52.382;5.270;2023-08-06T07:01:31;100787.66;;;20.40;57.93
55656;BME280;41530;52.382;5.270;2023-08-06T07:03:58;100783.81;;;20.43;57.63
55656;BME280;41530;52.382;5.270;2023-08-06T07:06:25;100787.47;;;20.50;57.54
55656;BME280;41530;52.382;5.270;2023-08-06T07:08:51;100778.25;;;20.52;57.72
55656;BME280;41530;52.382;5.270;2023-08-06T07:11:18;100784.75;;;20.58;57.59
55656;BME280;41530;52.382;5.270;2023-08-06T07:13:45;100787.75;;;20.63;57.50
55656;BME280;41530;52.382;5.270;2023-08-06T07:16:11;100791.56;;;20.69;58.09
55656;BME280;41530;52.382;5.270;2023-08-06T07:18:38;100786.88;;;20.71;57.87
55656;BME280;41530;52.382;5.270;2023-08-06T07:21:05;100784.19;;;20.71;57.75
55656;BME280;41530;52.382;5.270;2023-08-06T07:23:31;100794.22;;;20.77;57.24
55656;BME280;41530;52.382;5.270;2023-08-06T07:25:58;100788.31;;;20.81;57.29
55656;BME280;41530;52.382;5.270;2023-08-06T07:28:24;100794.66;;;20.88;57.28
55656;BME280;41530;52.382;5.270;2023-08-06T07:30:51;100803.13;;;20.92;57.14
55656;BME280;41530;52.382;5.270;2023-08-06T07:33:18;100797.78;;;20.92;57.33
55656;BME280;41530;52.382;5.270;2023-08-06T07:35:44;100803.47;;;20.97;57.34
55656;BME280;41530;52.382;5.270;2023-08-06T07:38:11;100810.47;;;20.98;57.40
55656;BME280;41530;52.382;5.270;2023-08-06T07:40:38;100805.78;;;21.00;57.29
55656;BME280;41530;52.382;5.270;2023-08-06T07:43:05;100812.81;;;21.01;57.64
55656;BME280;41530;52.382;5.270;2023-08-06T07:45:35;100818.63;;;21.05;57.21
55656;BME280;41530;52.382;5.270;2023-08-06T07:48:03;100814.94;;;21.06;57.59
55656;BME280;41530;52.382;5.270;2023-08-06T07:50:30;100811.44;;;21.05;57.65
55656;BME280;41530;52.382;5.270;2023-08-06T07:52:56;100816.78;;;21.05;57.68
55656;BME280;41530;52.382;5.270;2023-08-06T07:55:23;100815.09;;;21.04;57.44
55656;BME280;41530;52.382;5.270;2023-08-06T07:57:50;100815.09;;;21.04;57.78
55656;BME280;41530;52.382;5.270;2023-08-06T08:00:16;100815.09;;;21.04;57.54
55656;BME280;41530;52.382;5.270;2023-08-06T08:02:43;100811.81;;;21.02;57.70
55656;BME280;41530;52.382;5.270;2023-08-06T08:05:10;100810.78;;;21.03;57.69
55656;BME280;41530;52.382;5.270;2023-08-06T08:07:37;100812.81;;;21.01;57.58
55656;BME280;41530;52.382;5.270;2023-08-06T08:10:04;100817.31;;;21.01;57.44
55656;BME280;41530;52.382;5.270;2023-08-06T08:12:31;100826.84;;;21.03;57.40
55656;BME280;41530;52.382;5.270;2023-08-06T08:14:58;100817.31;;;21.01;57.24
55656;BME280;41530;52.382;5.270;2023-08-06T08:17:25;100820.69;;;20.94;57.48
55656;BME280;41530;52.382;5.270;2023-08-06T08:19:51;100823.69;;;20.91;57.49
55656;BME280;41530;52.382;5.270;2023-08-06T08:22:18;100822.69;;;20.92;57.46
55656;BME280;41530;52.382;5.270;2023-08-06T08:24:44;100824.53;;;20.92;57.61
55656;BME280;41530;52.382;5.270;2023-08-06T08:27:11;100820.41;;;20.89;57.28
55656;BME280;41530;52.382;5.270;2023-08-06T08:29:38;100815.88;;;20.90;57.43
55656;BME280;41530;52.382;5.270;2023-08-06T08:32:04;100824.06;;;20.88;57.40
55656;BME280;41530;52.382;5.270;2023-08-06T08:34:31;100832.94;;;20.89;57.62
55656;BME280;41530;52.382;5.270;2023-08-06T08:36:58;100824.06;;;20.88;57.51
55656;BME280;41530;52.382;5.270;2023-08-06T08:39:25;100825.91;;;20.88;57.51
55656;BME280;41530;52.382;5.270;2023-08-06T08:41:52;100826.75;;;20.88;57.28
55656;BME280;41530;52.382;5.270;2023-08-06T08:44:19;100822.22;;;20.89;57.49
55656;BME280;41530;52.382;5.270;2023-08-06T08:46:47;100826.56;;;20.90;57.84
55656;BME280;41530;52.382;5.270;2023-08-06T08:49:14;100822.22;;;20.89;57.53
55656;BME280;41530;52.382;5.270;2023-08-06T08:51:43;100822.06;;;20.90;57.59
55656;BME280;41530;52.382;5.270;2023-08-06T08:54:12;100810.88;;;20.87;57.53
55656;BME280;41530;52.382;5.270;2023-08-06T08:56:39;100823.56;;;20.85;57.58
55656;BME280;41530;52.382;5.270;2023-08-06T08:59:06;100830.75;;;20.84;57.77
55656;BME280;41530;52.382;5.270;2023-08-06T09:01:33;100845.13;;;20.83;57.22
55656;BME280;41530;52.382;5.270;2023-08-06T09:04:01;100850.81;;;20.80;57.63
55656;BME280;41530;52.382;5.270;2023-08-06T09:06:30;100856.34;;;20.79;57.53
55656;BME280;41530;52.382;5.270;2023-08-06T09:09:12;100861.88;;;20.77;57.65
55656;BME280;41530;52.382;5.270;2023-08-06T09:11:43;100871.91;;;20.75;57.51
55656;BME280;41530;52.382;5.270;2023-08-06T09:14:11;100872.25;;;20.72;57.53
55656;BME280;41530;52.382;5.270;2023-08-06T09:16:38;100880.44;;;20.71;57.43
55656;BME280;41530;52.382;5.270;2023-08-06T09:19:11;100879.09;;;20.67;57.37
55656;BME280;41530;52.382;5.270;2023-08-06T09:21:45;100880.47;;;20.62;57.58
55656;BME280;41530;52.382;5.270;2023-08-06T09:24:15;100888.50;;;20.62;57.46
55656;BME280;41530;52.382;5.270;2023-08-06T09:26:44;100886.81;;;20.61;57.37
55656;BME280;41530;52.382;5.270;2023-08-06T09:29:11;100899.19;;;20.62;57.25
55656;BME280;41530;52.382;5.270;2023-08-06T09:31:48;100894.19;;;20.59;57.17
55656;BME280;41530;52.382;5.270;2023-08-06T09:34:20;100901.03;;;20.62;57.18
55656;BME280;41530;52.382;5.270;2023-08-06T09:36:52;100899.34;;;20.61;57.17
55656;BME280;41530;52.382;5.270;2023-08-06T09:39:21;100901.19;;;20.60;57.28
55656;BME280;41530;52.382;5.270;2023-08-06T09:41:48;100910.38;;;20.58;57.26
55656;BME280;41530;52.382;5.270;2023-08-06T09:44:25;100906.53;;;20.60;57.21
55656;BME280;41530;52.382;5.270;2023-08-06T09:46:56;100906.72;;;20.59;56.93
55656;BME280;41530;52.382;5.270;2023-08-06T09:49:42;100913.06;;;20.58;57.16
55656;BME280;41530;52.382;5.270;2023-08-06T09:52:13;100905.88;;;20.58;57.16
55656;BME280;41530;52.382;5.270;2023-08-06T09:54:40;100904.88;;;20.59;56.96
55656;BME280;41530;52.382;5.270;2023-08-06T09:57:07;100910.38;;;20.58;57.69
55656;BME280;41530;52.382;5.270;2023-08-06T09:59:35;100915.56;;;20.59;57.04
55656;BME280;41530;52.382;5.270;2023-08-06T10:02:12;100908.88;;;20.55;57.21
55656;BME280;41530;52.382;5.270;2023-08-06T10:04:39;100919.22;;;20.58;57.22
55656;BME280;41530;52.382;5.270;2023-08-06T10:07:07;100926.59;;;20.56;57.46
55656;BME280;41530;52.382;5.270;2023-08-06T10:09:34;100928.25;;;20.57;57.40
55656;BME280;41530;52.382;5.270;2023-08-06T10:12:01;100941.44;;;20.59;57.39
55656;BME280;41530;52.382;5.270;2023-08-06T10:14:32;100940.63;;;20.58;57.46
55656;BME280;41530;52.382;5.270;2023-08-06T10:17:00;100943.63;;;20.55;57.39
55656;BME280;41530;52.382;5.270;2023-08-06T10:19:28;100940.94;;;20.55;56.97
55656;BME280;41530;52.382;5.270;2023-08-06T10:22:08;100940.63;;;20.58;56.92
55656;BME280;41530;52.382;5.270;2023-08-06T10:24:50;100938.09;;;20.57;56.90
55656;BME280;41530;52.382;5.270;2023-08-06T10:27:31;100946.28;;;20.55;57.11
55656;BME280;41530;52.382;5.270;2023-08-06T10:30:22;100940.13;;;20.55;56.84
55656;BME280;41530;52.382;5.270;2023-08-06T10:33:00;100941.78;;;20.56;56.90
55656;BME280;41530;52.382;5.270;2023-08-06T10:35:40;100946.28;;;20.55;57.13
55656;BME280;41530;52.382;5.270;2023-08-06T10:40:39;100951.63;;;20.55;57.23
55656;BME280;41530;52.382;5.270;2023-08-06T10:43:06;100954.31;;;20.55;57.19
55656;BME280;41530;52.382;5.270;2023-08-06T10:45:36;100953.31;;;20.56;57.16
55656;BME280;41530;52.382;5.270;2023-08-06T10:48:03;100956.81;;;20.57;57.21
55656;BME280;41530;52.382;5.270;2023-08-06T10:50:30;100951.31;;;20.58;56.98
55656;BME280;41530;52.382;5.270;2023-08-06T10:52:58;100938.09;;;20.57;57.30
55656;BME280;41530;52.382;5.270;2023-08-06T10:55:30;100943.28;;;20.58;57.10
55656;BME280;41530;52.382;5.270;2023-08-06T10:57:57;100952.16;;;20.59;57.20
55656;BME280;41530;52.382;5.270;2023-08-06T11:00:25;100948.47;;;20.60;57.24
55656;BME280;41530;52.382;5.270;2023-08-06T11:02:53;100952.66;;;20.62;57.29
55656;BME280;41530;52.382;5.270;2023-08-06T11:05:20;100948.31;;;20.61;57.38
55656;BME280;41530;52.382;5.270;2023-08-06T11:07:46;100942.78;;;20.63;57.28
55656;BME280;41530;52.382;5.270;2023-08-06T11:10:15;100947.09;;;20.64;57.26
55656;BME280;41530;52.382;5.270;2023-08-06T11:12:42;100946.09;;;20.65;57.45
55656;BME280;41530;52.382;5.270;2023-08-06T11:15:09;100944.94;;;20.68;57.30
55656;BME280;41530;52.382;5.270;2023-08-06T11:17:39;100952.78;;;20.69;57.56
55656;BME280;41530;52.382;5.270;2023-08-06T11:20:07;100953.63;;;20.70;57.14
55656;BME280;41530;52.382;5.270;2023-08-06T11:22:36;100949.44;;;20.67;57.29
55656;BME280;41530;52.382;5.270;2023-08-06T11:25:02;100954.28;;;20.72;57.27
55656;BME280;41530;52.382;5.270;2023-08-06T11:27:29;100950.44;;;20.74;57.16
55656;BME280;41530;52.382;5.270;2023-08-06T11:29:56;100967.31;;;20.75;57.20
55656;BME280;41530;52.382;5.270;2023-08-06T11:32:23;100966.50;;;20.74;57.23
55656;BME280;41530;52.382;5.270;2023-08-06T11:34:49;100967.31;;;20.75;57.32
55656;BME280;41530;52.382;5.270;2023-08-06T11:37:20;100976.19;;;20.75;57.06
55656;BME280;41530;52.382;5.270;2023-08-06T11:39:49;100974.34;;;20.76;57.15
55656;BME280;41530;52.382;5.270;2023-08-06T11:42:16;100973.50;;;20.75;57.11
55656;BME280;41530;52.382;5.270;2023-08-06T11:44:43;100979.69;;;20.76;57.12
55656;BME280;41530;52.382;5.270;2023-08-06T11:47:14;100987.56;;;20.77;57.50
55656;BME280;41530;52.382;5.270;2023-08-06T11:49:47;100989.03;;;20.80;57.41
55656;BME280;41530;52.382;5.270;2023-08-06T11:52:20;100997.03;;;20.80;57.22
55656;BME280;41530;52.382;5.270;2023-08-06T11:55:05;100991.69;;;20.80;57.38
55656;BME280;41530;52.382;5.270;2023-08-06T11:57:38;100986.72;;;20.77;57.27
55656;BME280;41530;52.382;5.270;2023-08-06T12:00:10;100983.84;;;20.78;57.16
55656;BME280;41530;52.382;5.270;2023-08-06T12:02:41;100989.38;;;20.77;57.04
55656;BME280;41530;52.382;5.270;2023-08-06T12:07:40;100988.06;;;20.73;57.16
55656;BME280;41530;52.382;5.270;2023-08-06T12:10:08;100989.88;;;20.72;57.13
55656;BME280;41530;52.382;5.270;2023-08-06T12:12:35;100987.38;;;20.71;57.19
55656;BME280;41530;52.382;5.270;2023-08-06T12:15:02;100992.22;;;20.75;57.29
55656;BME280;41530;52.382;5.270;2023-08-06T12:17:29;100998.75;;;20.73;57.42
55656;BME280;41530;52.382;5.270;2023-08-06T12:19:56;100998.41;;;20.76;57.57
55656;BME280;41530;52.382;5.270;2023-08-06T12:22:23;101002.25;;;20.73;57.19
55656;BME280;41530;52.382;5.270;2023-08-06T12:24:50;101002.09;;;20.75;57.23
55656;BME280;41530;52.382;5.270;2023-08-06T12:27:17;101008.44;;;20.74;57.47
55656;BME280;41530;52.382;5.270;2023-08-06T12:29:46;101007.59;;;20.73;57.21
55656;BME280;41530;52.382;5.270;2023-08-06T12:32:14;101012.09;;;20.73;56.87
55656;BME280;41530;52.382;5.270;2023-08-06T12:34:41;101019.13;;;20.74;57.49
55656;BME280;41530;52.382;5.270;2023-08-06T12:37:19;101015.63;;;20.73;57.17
55656;BME280;41530;52.382;5.270;2023-08-06T12:39:46;101011.28;;;20.72;56.93
55656;BME280;41530;52.382;5.270;2023-08-06T12:42:12;101018.28;;;20.73;57.28
55656;BME280;41530;52.382;5.270;2023-08-06T12:44:39;101020.81;;;20.75;57.18
55656;BME280;41530;52.382;5.270;2023-08-06T12:47:07;101019.81;;;20.76;57.28
55656;BME280;41530;52.382;5.270;2023-08-06T12:49:34;101023.13;;;20.78;56.95
55656;BME280;41530;52.382;5.270;2023-08-06T12:52:01;101024.16;;;20.77;56.86
55656;BME280;41530;52.382;5.270;2023-08-06T12:54:28;101022.94;;;20.79;57.27
55656;BME280;41530;52.382;5.270;2023-08-06T12:56:55;101032.47;;;20.82;57.29
55656;BME280;41530;52.382;5.270;2023-08-06T12:59:22;101028.97;;;20.81;57.11
55656;BME280;41530;52.382;5.270;2023-08-06T13:01:49;101032.97;;;20.85;57.05
55656;BME280;41530;52.382;5.270;2023-08-06T13:04:16;101040.00;;;20.86;57.29